Jesús Gil

Olheiro-Chefe - Málaga
8 Jan 2028
Sábado
Processo

Personalidade

Adaptabilidade (12) Ambição (17) Controvérsia (12) Lealdade (17) Pressão (10) Profissionalismo (10) Espírito Esportivo (6) Temperamento (4)

Perfil

Estilo de Treinamento Democrático
Licença Continental A
Determinação 7
Gestão de Pessoas 5
Motivação 8
Disciplina 13
Satisfação no Trabalho
74%
Fadiga
0%
Função Olheiro-Chefe
Salário 25.9K p/s
Contrato 14.03.2030

Desempenho

Comportamento Bom
Eficácia do Treinamento
32%
Desenvolvimento do Jogador
60%
Prevenção de Lesões
65%
Implementação Tática
60%

Eventos Recentes

Participou de uma reunião de recrutamento agora
Participou de uma reunião de recrutamento agora
Apresentou um dossiê à direção 7d atrás
Apresentou um dossiê à direção 7d atrás
Apresentou um dossiê à direção 7d atrás
Apresentou um dossiê à direção 7d atrás
Apresentou um dossiê à direção 7d atrás
Apresentou um dossiê à direção 7d atrás

Monitorando agora

203
Jogador Clube Status Habilidade Confiança Observado Última observação Último voto
Inti Borghetto Patronato Ativo 87 / 99 40% 6 01.01.2028 -
Archie Gray Leicester City Ativo 150 / 154 40% 2 01.01.2028 -
Pedro de la Vega Leganés Perdido 133 / 134 90% 1 01.01.2028 -
Toni Fruk Universidad Catolica Negociando 132 / 133 66% 1 01.01.2028 -
Bitello San Lorenzo Negociando 135 / 135 91% 1 01.01.2028 -
Javi Montero Leganés Negociando 118 / 117 72% 1 01.01.2028 -
Christos Mouzakitis Hull City Ativo 142 / 140 40% 2 31.12.2027 -
Timoteo Chamorro Vélez Ativo 109 / 113 40% 3 31.12.2027 -
Sebastián Ramírez America de Cali Ativo 106 / 108 40% 5 31.12.2027 -
Octavio Ontivero Lanús Ativo 105 / 117 40% 2 17.12.2027 -
Mauro Carrizo Atlético Tucumán Ativo 101 / 109 40% 4 17.12.2027 -
Mariano Gerez Lanús Ativo 98 / 113 40% 1 17.12.2027 -
Ignacio Pérez Antofagasta Ativo 98 / 102 40% 2 13.12.2027 -
Sheriff Amuda Shooting Stars Ativo 88 / 106 40% 3 13.12.2027 -
Mateo Caballero Defensor Sporting Ativo 105 / 110 40% 1 13.12.2027 -
Valente Pierani Boca Juniors Ativo 118 / 120 40% 2 11.12.2027 -
Álvaro Navoni Tigre Ativo 92 / 91 40% 2 10.12.2027 -
Caleb Yirenkyi Coventry City Ativo 142 / 145 40% 2 10.12.2027 -
Santiago Espíndola River Plate Ativo 101 / 116 40% 4 10.12.2027 -
Agustín Medina Lanús Ativo 116 / 129 40% 10 08.12.2027 -
Ulises Giménez River Plate Ativo 108 / 111 40% 4 08.12.2027 -
Esquerdinha Oldham Athletic Ativo 123 / 128 40% 1 08.12.2027 -
Facundo Balatti Penarol Ativo 106 / 110 40% 2 05.12.2027 -
Dylan Gorosito Boca Juniors Ativo 107 / 115 40% 5 05.12.2027 -
Matías Pandiella Banfield Ativo 93 / 93 40% 1 05.12.2027 -
Mads Bomholt Lillestrom Ativo 109 / 127 40% 2 04.12.2027 -
Geanfranco Rodríguez Defensor Sporting Ativo 96 / 98 40% 4 02.12.2027 -
Nazareno Roselli Defensa y Justicia Ativo 116 / 119 40% 4 02.12.2027 -
Lautaro Quiroga Defensa y Justicia Ativo 102 / 112 40% 2 02.12.2027 -
Hosea Michael Remo Stars Ativo 82 / 98 40% 2 01.12.2027 -
Diego Cheuquepal Racing Ativo 97 / 108 40% 3 01.12.2027 -
Olaniyi Saheed Kwara United Ativo 88 / 107 40% 1 30.11.2027 -
Agustín De la Cuesta Argentinos Juniors Ativo 112 / 113 40% 5 29.11.2027 -
Uche Jaguar Kwara United Ativo 94 / 92 40% 3 28.11.2027 -
Francisco Arias Gimnasia y Esgrima Ativo 88 / 101 40% 1 28.11.2027 -
Hugo Rojas Instituto Ativo 99 / 104 40% 2 27.11.2027 -
Joel Ezra Enyimba Ativo 94 / 91 40% 3 26.11.2027 -
Leandro Ortiz San Miguel Ativo 93 / 94 40% 1 26.11.2027 -
Felipe Obradovich Gimnasia La Plata Ativo 111 / 113 40% 2 25.11.2027 -
Halam Loboa Independiente Medellin Ativo 116 / 123 40% 4 25.11.2027 -
Aiden Hezarkhani Real Salt Lake Ativo 99 / 95 40% 2 25.11.2027 -
Gregorio Pulero Sarmiento Ativo 93 / 95 40% 1 24.11.2027 -
Juan Giménez Rosario Central Ativo 111 / 119 40% 2 23.11.2027 -
Buba Sangaré Elche Ativo 125 / 135 40% 1 21.11.2027 -
Gonzalo Escudero Racing Club Ativo 109 / 121 40% 1 21.11.2027 -
Biel La Equidad Ativo 119 / 128 40% 1 18.11.2027 -
Gideon Manaseh Ikorodu City Ativo 87 / 104 40% 1 16.11.2027 -
Toni Tamarit Alverca Ativo 117 / 132 40% 4 15.11.2027 -
Lucio Cruceño Godoy Cruz Ativo 103 / 106 40% 1 15.11.2027 -
Héctor Fort Real Sociedad Ativo 143 / 142 40% 3 14.11.2027 -
Camilo Rey Domenech Racing Club Ativo 117 / 127 40% 2 12.11.2027 -
Lautaro Dufur Rentistas Ativo 103 / 110 40% 2 12.11.2027 -
Matías Magdaleno Estudiantes Ativo 105 / 109 40% 1 12.11.2027 -
Celías Ingenthron Platense Ativo 109 / 128 40% 5 09.11.2027 -
Sergio Castillo Cortulua Ativo 104 / 111 40% 1 07.11.2027 -
Axel Tape Bayer Leverkusen Ativo 137 / 140 40% 1 05.11.2027 -
Nahuel Leivas Montevideo City Torque Ativo 109 / 113 40% 1 05.11.2027 -
Juan Morán Godoy Cruz Ativo 102 / 106 40% 1 03.11.2027 -
Facundo González River Plate Ativo 107 / 110 40% 1 01.11.2027 -
Lautaro Ávila Racing Ativo 95 / 95 40% 3 14.10.2027 -
Esteban de Lima Tacuarembo Ativo 91 / 94 40% 3 13.10.2027 -
Juan Manuel Villalba Boca Juniors Ativo 124 / 126 40% 1 13.10.2027 -
Agustín Obregón River Plate Ativo 113 / 124 40% 2 12.10.2027 -
Valentino Massi Sarmiento Ativo 101 / 114 40% 1 12.10.2027 -
Matías Argüello Libertad Ativo 94 / 102 40% 1 11.10.2027 -
Agustín Gálvez Atlético Tucumán Ativo 93 / 98 40% 1 06.10.2027 -
Santino Gatti Belgrano Ativo 100 / 101 40% 1 30.08.2027 -
Alan Morinigo Olimpia Ativo 120 / 120 40% 1 16.08.2027 -
Lucas Ribeiro Cultural Leonesa Ativo 122 / 136 72% 1 14.06.2027 -
Konstantin Tyukavin Arsenal Negociando 132 / 133 66% 1 01.06.2027 -
Juan Fernándes Pinto Almagro Ativo 103 / 117 40% 1 01.06.2027 -
Riquelme Thompson-Jones Shrewsbury Town Ativo 98 / 113 40% 1 01.06.2027 -
Leandro Martins Benfica Ativo 92 / 101 40% 1 01.06.2027 -
João Simões Sporting CP Ativo 139 / 141 40% 2 27.05.2027 -
Jonathan De Irastorza Levante Ativo 128 / 124 40% 1 27.05.2027 -
Yusi Alavés Ativo 137 / 136 40% 6 22.05.2027 -
Jofre Torrents Ajax Ativo 116 / 129 40% 3 21.05.2027 -
Gonçalo Oliveira Benfica Ativo 110 / 119 40% 2 21.05.2027 -
Jon Garro Real Sociedad Ativo 81 / 95 40% 1 21.05.2027 -
Agustín Alvez San Lorenzo Ativo 95 / 98 40% 1 20.05.2027 -
Gladson Sulemana Liberty Professionals Ativo 99 / 105 40% 1 19.05.2027 -
Facundo Infante Talleres Ativo 92 / 91 40% 1 19.05.2027 -
Samuel Lucero Defensa y Justicia Ativo 117 / 119 40% 3 16.05.2027 -
Pietro Reggiori Pro Patria Ativo 84 / 104 40% 1 16.05.2027 -
Maeson King Blackpool Ativo 99 / 110 40% 1 12.05.2027 -
Tiago Gordillo San Miguel Ativo 91 / 92 40% 1 12.05.2027 -
Noah Nartey Olympique Lyonnais Ativo 137 / 139 40% 1 11.05.2027 -
Enzo Cardozo Virtus Entella Ativo 114 / 116 40% 1 10.05.2027 -
Thomas Alderweireld Dijon Ativo 125 / 139 40% 1 04.05.2027 -
Marcos López Banfield Ativo 98 / 110 40% 1 03.05.2027 -
Riley Owen Wycombe Wanderers Ativo 95 / 114 40% 2 22.04.2027 -
Bakary Haïdara Hearts of Oak Ativo 106 / 113 40% 1 13.04.2027 -
Joel McGregor Swindon Town Ativo 94 / 100 40% 1 13.04.2027 -
Yussif Saidu Zaragoza Ativo 117 / 130 40% 1 11.04.2027 -
Lucas Jetten Cambuur Ativo 103 / 127 40% 1 07.04.2027 -
José Pachuca Puebla Ativo 112 / 123 40% 1 07.04.2027 -
Sam Curtis Swindon Town Ativo 99 / 114 40% 1 06.04.2027 -
Abraham Paintsil Hasaacas Ativo 79 / 109 40% 1 05.04.2027 -
Tiago Freitas Benfica Ativo 112 / 108 40% 1 05.04.2027 -
Santiago Montiel Independiente Ativo 134 / 128 40% 8 26.01.2027 -
Manu Pozo Torreense Ativo 122 / 125 40% 1 26.01.2027 -
Abel Ruiz Girona Ativo 141 / 134 40% 1 26.01.2027 -
Alex Scott Bournemouth Ativo 148 / 145 40% 1 18.01.2027 -
Omar El Hilali Espanyol Ativo 156 / 153 40% 1 18.01.2027 -
Pol Lozano Espanyol Ativo 133 / 136 40% 1 18.01.2027 -
Unai Vencedor Burgos Ativo 132 / 135 40% 1 11.01.2027 -
Florentino Luís Ipswich Town Ativo 135 / 148 40% 1 07.01.2027 -
Callum Doyle Wrexham Ativo 123 / 127 40% 1 03.01.2027 -
Antonio Blanco Alavés Ativo 144 / 145 40% 1 03.01.2027 -
Fran Beltrán Girona Ativo 145 / 130 40% 1 03.01.2027 -
José Paradela Cerro Porteno Negociando 137 / 137 66% 1 01.01.2027 -
Yeremay Deportivo La Coruña Ativo 150 / 133 40% 4 30.12.2026 -
Tomás O'Connor Gimnasia y Esgrima Ativo 124 / 123 40% 2 30.12.2026 -
Santi García Gil Vicente Ativo 132 / 140 40% 2 30.12.2026 -
Gaspar Gijón Ativo 146 / 145 40% 3 29.12.2026 Observar
Pablo Solari Spartak Moscow Ativo 141 / 130 40% 1 29.12.2026 -
Carlos Álvarez Club America Ativo 147 / 136 40% 15 28.12.2026 Observar
Gonzalo Fulham Ativo 138 / 146 40% 4 23.12.2026 -
Dilan Godoy Vélez Ativo 102 / 114 40% 2 23.12.2026 -
Alex Vigo Independiente Rivadavia Ativo 116 / 124 40% 2 23.12.2026 -
Alexis Cuello San Lorenzo Ativo 127 / 123 40% 1 23.12.2026 -
Matías Fernández-Pardo Newcastle United Ativo 144 / 146 40% 1 23.12.2026 -
Mathys Tel Stade Rennais Ativo 150 / 156 40% 2 22.12.2026 -
Roberto Fernández Braga Ativo 135 / 145 40% 6 18.12.2026 -
Rodrigo González Aldosivi Ativo 126 / 113 40% 1 18.12.2026 -
César Ibáñez Huracán Ativo 132 / 128 40% 2 17.12.2026 -
Lautaro Ríos Banfield Ativo 110 / 110 40% 1 17.12.2026 -
Mariano Bracamonte Deportivo Riestra Ativo 123 / 114 40% 2 16.12.2026 -
Erick Sánchez Valladolid Ativo 147 / 137 40% 1 16.12.2026 -
Franco Ibarra Rosario Central Ativo 133 / 126 40% 4 15.12.2026 -
Federico Navarro Rosario Central Ativo 128 / 119 40% 2 15.12.2026 -
Carlos Vicente Udinese Ativo 150 / 133 40% 3 14.12.2026 -
Facundo Salinas Vélez Ativo 98 / 111 40% 1 14.12.2026 -
Franco Zapiola Platense Ativo 126 / 126 40% 3 12.12.2026 -
Matías Fernández Independiente Rivadavia Ativo 121 / 128 40% 4 11.12.2026 -
Diego Lainez Tigres Ativo 124 / 122 40% 3 09.12.2026 -
Manuel Mónaco Sarmiento Ativo 118 / 120 40% 1 09.12.2026 -
Ramiro Ruiz Rodríguez Atlético Tucumán Ativo 119 / 117 40% 4 04.12.2026 -
Pedro Porro Tottenham Ativo 140 / 151 40% 2 03.12.2026 -
Baltasar Rodríguez Estudiantes Ativo 127 / 123 40% 2 01.12.2026 -
Matías Giménez Rojas Argentinos Juniors Ativo 123 / 127 40% 1 01.12.2026 -
Aarón Molinas Defensa y Justicia Ativo 122 / 118 40% 1 30.11.2026 -
Martín Ortega Newell's Old Boys Ativo 126 / 113 40% 1 30.11.2026 -
Rodrigo Herrera Newell's Old Boys Ativo 122 / 129 40% 1 27.11.2026 -
Ezequiel Bullaude Santos Laguna Ativo 129 / 122 40% 1 27.11.2026 -
César Huerta Pumas UNAM Ativo 131 / 130 40% 1 26.11.2026 -
Enzo Loiodice KAA Gent Ativo 131 / 132 40% 2 25.11.2026 -
Helinho Toluca Ativo 140 / 127 40% 2 25.11.2026 -
Alejandro Medina Tigre Ativo 87 / 96 40% 1 25.11.2026 -
Alan Coria Defensa y Justicia Ativo 105 / 109 40% 1 25.11.2026 -
Luciano Sábato Independiente Rivadavia Ativo 90 / 99 40% 1 24.11.2026 -
Fabricio Ventresca Deportivo Riestra Ativo 93 / 95 40% 1 24.11.2026 -
Alex Luna Instituto Ativo 136 / 123 40% 2 22.11.2026 -
Pau Víctor Estrela da Amadora Ativo 132 / 140 40% 2 22.11.2026 Mais informações
Joaquín García Vélez Ativo 127 / 118 40% 5 21.11.2026 -
Adrià Altimira Deportivo La Coruña Ativo 127 / 128 40% 1 21.11.2026 -
Augusto Schott Talleres Ativo 115 / 124 40% 3 20.11.2026 -
Franco Domínguez Ávila Estudiantes Ativo 91 / 94 40% 1 20.11.2026 -
Axel Orrabalis Racing Club Ativo 81 / 93 40% 1 16.11.2026 -
Ignacio Copetti Central Córdoba SdE Ativo 87 / 97 40% 1 16.11.2026 -
Nicolás Baigorria San Telmo Ativo 90 / 99 40% 1 14.11.2026 -
Matías Contrera Northampton Town Ativo 90 / 99 40% 1 14.11.2026 -
Juanlu Bournemouth Ativo 152 / 141 40% 4 12.11.2026 -
Tiago Palacios Estudiantes Ativo 136 / 130 40% 1 12.11.2026 -
Thiago Ponce Rosario Central Ativo 100 / 105 40% 2 10.11.2026 -
Manuel Insaurralde San Lorenzo Ativo 119 / 115 40% 3 08.11.2026 -
Santiago González Tigre Ativo 119 / 126 40% 1 08.11.2026 -
Pedro Ramírez Deportivo Riestra Ativo 118 / 116 40% 1 08.11.2026 -
Franco Díaz Temperley Ativo 126 / 127 40% 2 07.11.2026 -
Alexander Díaz Deportivo Riestra Ativo 123 / 122 40% 2 05.11.2026 -
Iván Tapia Barracas Central Ativo 116 / 126 40% 2 05.11.2026 -
Alexis Steimbach Gimnasia La Plata Ativo 118 / 128 40% 1 04.11.2026 -
Jeremías Reyna Vélez Ativo 93 / 108 40% 1 04.11.2026 -
Matías Acevedo Racing Club Ativo 99 / 114 40% 1 01.11.2026 -
Joaquín Gho Argentinos Juniors Ativo 126 / 120 40% 2 30.10.2026 -
Stefano Moreyra Independiente Rivadavia Ativo 113 / 128 40% 1 28.10.2026 -
Juan Bisanz Huracán Ativo 129 / 120 40% 1 28.10.2026 -
Gastón Benedetti Estudiantes Ativo 126 / 123 40% 1 23.10.2026 -
Jaminton Campaz Rosario Central Ativo 129 / 129 40% 1 22.10.2026 -
Franco Sassone Defensores Ativo 87 / 88 40% 1 22.10.2026 -
Nahuel Reyes Mitre Ativo 86 / 92 40% 1 21.10.2026 -
Axel Pedrozo Almagro Ativo 86 / 91 40% 1 20.10.2026 -
Alexis Devesa Aldosivi Ativo 81 / 99 40% 1 20.10.2026 -
Felipe Peña Biafore Lanús Ativo 127 / 127 40% 1 18.10.2026 -
Tomás Adoryan Banfield Ativo 123 / 118 40% 1 16.10.2026 -
Riqui Puig LA Galaxy Ativo 131 / 136 40% 1 16.10.2026 -
Imanol Machuca Independiente Ativo 130 / 129 40% 1 15.10.2026 -
Kevin Álvarez Club America Ativo 129 / 140 40% 1 15.10.2026 -
Franco Romero Toluca Ativo 128 / 134 40% 1 15.10.2026 -
Ryan Sessegnon Fulham Ativo 141 / 136 40% 2 14.10.2026 -
Flavien-Enzo Boyomo Osasuna Ativo 155 / 158 40% 1 14.10.2026 -
Federico Bonini Almería Ativo 127 / 134 40% 1 14.10.2026 -
Sergio Barreto Pachuca Ativo 126 / 134 40% 1 13.10.2026 -
Guille Rosas Gijón Ativo 135 / 140 40% 1 13.10.2026 -
Víctor Gómez Braga Ativo 140 / 134 40% 1 12.10.2026 -
Tyler Adams Bournemouth Ativo 158 / 144 40% 1 12.10.2026 -
Adrien Truffert Bournemouth Ativo 147 / 157 40% 1 12.10.2026 -
Adalberto Carrasquilla Pumas UNAM Ativo 120 / 131 40% 1 11.10.2026 -
Joaquim Tigres Ativo 127 / 121 40% 1 09.10.2026 -
Juan Carlos Portillo River Plate Ativo 127 / 119 40% 1 09.10.2026 -
Tomás Galván River Plate Ativo 129 / 130 40% 1 07.10.2026 -
Fernando Martínez Central Córdoba SdE Ativo 115 / 125 40% 1 05.10.2026 -
Thiago Currado Platense Ativo 95 / 103 40% 1 01.08.2026 -